Time;durP1;ratioP1;P1;durP2;ratioP2;P2;SDS_P1;SDS_P2;PMS_P1;PMS_P2;Temp;Humidity;BMP_temperature;BMP_pressure;BME280_temperature;BME280_humidity;BME280_pressure;Samples;Min_cycle;Max_cycle;Signal;HPM_P1;HPM_P2
2023/04/17 00:01:33;;;;;;;15.60;13.80;;;;;;;8.61;83.52;100927.55;103600;280;175018;-72
2023/04/17 00:04:09;;;;;;;16.20;13.80;;;;;;;8.62;83.45;100923.19;103648;280;38226;-73
2023/04/17 00:06:43;;;;;;;15.50;13.20;;;;;;;8.59;83.40;100924.65;103685;280;38742;-68
2023/04/17 00:09:22;;;;;;;15.70;13.60;;;;;;;8.61;83.53;100922.85;103644;280;38552;-68
2023/04/17 00:11:57;;;;;;;14.80;13.20;;;;;;;8.63;83.66;100920.39;103651;280;38408;-68
2023/04/17 00:14:31;;;;;;;15.10;13.20;;;;;;;8.63;83.40;100917.77;103667;280;38498;-70
2023/04/17 00:17:07;;;;;;;15.50;13.90;;;;;;;8.63;83.36;100917.09;103685;280;39447;-67
2023/04/17 00:19:41;;;;;;;16.00;14.10;;;;;;;8.65;83.51;100913.38;103666;280;38464;-68
2023/04/17 00:22:15;;;;;;;15.70;13.80;;;;;;;8.67;83.43;100915.77;103716;280;39327;-69
2023/04/17 00:24:49;;;;;;;13.20;11.80;;;;;;;8.65;83.31;100914.25;103644;279;38624;-70
2023/04/17 00:27:23;;;;;;;13.70;12.30;;;;;;;8.64;83.17;100919.84;103617;280;189159;-71
2023/04/17 00:29:57;;;;;;;14.90;13.10;;;;;;;8.62;83.26;100920.75;103671;280;39420;-70
2023/04/17 00:32:31;;;;;;;16.00;13.40;;;;;;;8.61;83.33;100923.73;103734;280;39631;-73
2023/04/17 00:35:06;;;;;;;15.10;13.50;;;;;;;8.60;83.31;100920.27;103639;280;39211;-72
2023/04/17 00:37:40;;;;;;;15.00;13.10;;;;;;;8.56;83.36;100918.96;103713;280;39646;-73
2023/04/17 00:40:17;;;;;;;14.20;12.50;;;;;;;8.56;83.47;100921.23;103706;280;40207;-70
2023/04/17 00:43:01;;;;;;;14.60;12.80;;;;;;;8.58;83.63;100921.36;103695;280;38515;-76
2023/04/17 00:45:35;;;;;;;14.00;12.40;;;;;;;8.57;83.48;100923.47;103702;280;38542;-70
2023/04/17 00:48:09;;;;;;;14.90;13.20;;;;;;;8.54;83.61;100927.17;103723;279;39433;-70
2023/04/17 00:50:43;;;;;;;16.70;13.30;;;;;;;8.51;83.73;100931.75;103672;280;38848;-71
2023/04/17 00:53:17;;;;;;;14.10;12.70;;;;;;;8.50;83.69;100934.23;103652;280;39415;-70
2023/04/17 00:55:51;;;;;;;15.20;13.40;;;;;;;8.49;83.65;100937.02;103698;280;38625;-69
2023/04/17 00:58:25;;;;;;;16.00;13.80;;;;;;;8.49;83.68;100931.63;103674;280;39375;-67
2023/04/17 01:01:02;;;;;;;14.30;12.70;;;;;;;8.50;83.62;100940.65;103733;269;38831;-67
2023/04/17 01:03:47;;;;;;;14.00;12.50;;;;;;;8.52;83.86;100942.54;103665;280;39492;-68
2023/04/17 01:06:26;;;;;;;18.00;14.40;;;;;;;8.51;83.76;100940.11;103673;280;38253;-67
2023/04/17 01:09:06;;;;;;;15.40;12.90;;;;;;;8.48;83.78;100942.07;103670;280;38253;-68
2023/04/17 01:11:40;;;;;;;15.90;13.20;;;;;;;8.48;84.01;100943.83;103729;280;38673;-67
2023/04/17 01:14:14;;;;;;;15.80;13.50;;;;;;;8.50;84.05;100941.51;103682;280;39756;-68
2023/04/17 01:16:51;;;;;;;15.50;13.80;;;;;;;8.52;84.05;100940.95;103589;280;175420;-70
2023/04/17 01:19:25;;;;;;;16.00;13.40;;;;;;;8.54;83.98;100945.45;103666;280;38822;-72
2023/04/17 01:21:58;;;;;;;15.90;13.10;;;;;;;8.50;84.15;100947.59;103709;280;38741;-70
2023/04/17 01:24:32;;;;;;;15.70;12.60;;;;;;;8.48;84.13;100948.17;103566;280;175461;-71
2023/04/17 01:27:08;;;;;;;14.00;12.50;;;;;;;8.49;84.32;100942.41;103744;280;39645;-68
2023/04/17 01:29:46;;;;;;;14.60;13.00;;;;;;;8.50;84.25;100939.42;103690;280;38249;-68
2023/04/17 01:32:23;;;;;;;15.50;13.00;;;;;;;8.53;84.25;100932.94;103546;282;39272;-71
2023/04/17 01:34:57;;;;;;;15.70;14.00;;;;;;;8.54;84.29;100935.54;103269;280;576859;-71
2023/04/17 01:37:31;;;;;;;18.90;13.30;;;;;;;8.50;84.32;100936.14;103612;280;39392;-70
2023/04/17 01:40:06;;;;;;;14.50;12.40;;;;;;;8.46;84.29;100937.08;103690;280;38244;-71
2023/04/17 01:42:40;;;;;;;15.10;12.60;;;;;;;8.47;84.57;100941.58;103718;280;38358;-73
2023/04/17 01:45:15;;;;;;;14.10;12.20;;;;;;;8.46;84.62;100941.42;103683;280;38549;-71
2023/04/17 01:47:49;;;;;;;16.80;14.40;;;;;;;8.45;84.78;100945.11;103736;280;38234;-71
2023/04/17 01:50:26;;;;;;;18.50;14.60;;;;;;;8.45;84.81;100949.80;103695;280;40123;-69
2023/04/17 01:53:00;;;;;;;15.70;13.80;;;;;;;8.46;84.99;100950.11;103688;280;39664;-67
2023/04/17 01:55:35;;;;;;;14.90;12.70;;;;;;;8.47;84.85;100951.66;103678;280;38562;-71
2023/04/17 01:58:09;;;;;;;15.70;13.00;;;;;;;8.48;84.74;100953.90;103690;280;38396;-71
2023/04/17 02:00:44;;;;;;;16.40;13.50;;;;;;;8.49;84.73;100953.55;103687;280;38282;-69
2023/04/17 02:03:18;;;;;;;15.20;13.20;;;;;;;8.49;84.72;100953.54;103649;280;38730;-69
2023/04/17 02:05:52;;;;;;;19.50;14.40;;;;;;;8.48;84.68;100951.30;103678;280;39634;-68
2023/04/17 02:08:26;;;;;;;17.10;14.10;;;;;;;8.46;84.73;100951.16;103686;280;38484;-69
2023/04/17 02:11:00;;;;;;;16.20;13.60;;;;;;;8.46;84.71;100953.42;103705;280;38250;-72
2023/04/17 02:13:34;;;;;;;14.90;12.60;;;;;;;8.48;84.86;100952.87;103706;280;39954;-71
2023/04/17 02:16:11;;;;;;;15.30;13.70;;;;;;;8.49;84.63;100957.37;103681;280;38579;-73
2023/04/17 02:18:45;;;;;;;17.50;13.80;;;;;;;8.47;84.73;100956.17;103673;280;39963;-73
2023/04/17 02:21:19;;;;;;;15.30;13.70;;;;;;;8.47;84.81;100953.41;103704;280;38439;-71
2023/04/17 02:23:52;;;;;;;15.10;12.80;;;;;;;8.48;84.80;100954.77;103653;280;39580;-71
2023/04/17 02:26:26;;;;;;;15.80;12.60;;;;;;;8.45;84.56;100954.14;103672;280;38567;-73
2023/04/17 02:29:00;;;;;;;14.80;13.10;;;;;;;8.41;84.57;100955.79;103647;280;39414;-70
2023/04/17 02:31:34;;;;;;;14.10;12.60;;;;;;;8.40;84.67;100958.58;103726;280;39577;-72
2023/04/17 02:34:08;;;;;;;18.70;14.50;;;;;;;8.45;85.04;100955.54;103568;280;175092;-73
2023/04/17 02:36:43;;;;;;;15.20;13.10;;;;;;;8.45;84.91;100957.45;103706;279;38405;-70
2023/04/17 02:39:17;;;;;;;18.30;14.10;;;;;;;8.44;84.94;100958.85;103635;279;38271;-71
2023/04/17 02:41:53;;;;;;;16.20;13.90;;;;;;;8.44;84.91;100956.59;103716;280;39634;-67
2023/04/17 02:44:29;;;;;;;15.30;13.10;;;;;;;8.44;84.88;100956.08;103693;280;39699;-69
2023/04/17 02:47:03;;;;;;;16.30;13.50;;;;;;;8.44;85.04;100958.67;103713;280;38876;-71
2023/04/17 02:49:37;;;;;;;19.90;14.80;;;;;;;8.45;85.01;100958.66;103686;280;39893;-70
2023/04/17 02:52:11;;;;;;;15.20;13.40;;;;;;;8.40;84.75;100964.67;103751;280;38250;-73
2023/04/17 02:54:45;;;;;;;15.30;13.10;;;;;;;8.34;84.73;100970.84;103662;280;40269;-72
2023/04/17 02:57:18;;;;;;;16.10;13.20;;;;;;;8.31;84.75;100977.15;103722;280;39715;-72
2023/04/17 02:59:52;;;;;;;14.50;12.80;;;;;;;8.28;84.65;100974.10;103674;280;38254;-70
2023/04/17 03:02:26;;;;;;;15.40;13.70;;;;;;;8.24;84.80;100972.41;103698;280;38345;-71
2023/04/17 03:05:02;;;;;;;17.60;13.80;;;;;;;8.22;85.09;100973.30;103691;279;38524;-73
2023/04/17 03:07:36;;;;;;;14.00;12.00;;;;;;;8.22;85.34;100974.02;103718;280;39738;-73
2023/04/17 03:10:12;;;;;;;13.90;12.40;;;;;;;8.21;85.26;100973.86;103518;282;38662;-71
2023/04/17 03:12:46;;;;;;;14.70;12.90;;;;;;;8.18;85.28;100977.21;103725;280;38657;-67
2023/04/17 03:15:21;;;;;;;15.10;12.60;;;;;;;8.18;85.42;100981.92;103654;279;38625;-69
2023/04/17 03:17:55;;;;;;;16.40;13.60;;;;;;;8.18;85.60;100982.79;103730;280;40042;-71
2023/04/17 03:20:29;;;;;;;14.50;12.90;;;;;;;8.17;85.69;100985.75;103712;280;38261;-70
2023/04/17 03:23:03;;;;;;;14.90;13.20;;;;;;;8.18;85.87;100988.17;103644;280;38905;-70
2023/04/17 03:25:37;;;;;;;14.40;12.60;;;;;;;8.19;86.05;100985.20;103630;280;38272;-70
2023/04/17 03:28:11;;;;;;;15.80;12.10;;;;;;;8.20;85.99;100989.87;103679;280;38355;-71
2023/04/17 03:30:45;;;;;;;13.60;12.10;;;;;;;8.23;86.13;100992.44;103709;280;39418;-70
2023/04/17 03:33:20;;;;;;;17.00;13.20;;;;;;;8.28;86.38;100997.55;103657;280;38554;-69
2023/04/17 03:35:54;;;;;;;16.10;14.20;;;;;;;8.34;86.36;100999.35;103726;268;39807;-68
2023/04/17 03:38:29;;;;;;;16.00;13.20;;;;;;;8.36;86.37;100998.80;103686;280;39425;-69
2023/04/17 03:41:03;;;;;;;15.60;13.10;;;;;;;8.39;86.45;100998.26;103469;280;189265;-70
2023/04/17 03:43:38;;;;;;;14.00;12.10;;;;;;;8.41;86.66;100996.30;103706;279;38268;-70
2023/04/17 03:46:12;;;;;;;13.60;11.90;;;;;;;8.42;86.46;100999.75;103679;280;38587;-73
2023/04/17 03:48:46;;;;;;;13.80;12.30;;;;;;;8.43;86.63;101001.30;103626;280;39582;-70
2023/04/17 03:51:20;;;;;;;15.00;13.40;;;;;;;8.44;86.59;101001.48;103674;280;38283;-68
2023/04/17 03:53:54;;;;;;;15.30;13.10;;;;;;;8.46;86.71;101003.48;103658;280;39135;-70
2023/04/17 03:56:28;;;;;;;16.40;13.40;;;;;;;8.47;86.63;101010.95;103697;280;39732;-69
2023/04/17 03:59:03;;;;;;;14.10;12.30;;;;;;;8.49;86.63;101006.92;103684;280;40029;-67
2023/04/17 04:01:37;;;;;;;14.30;12.40;;;;;;;8.50;86.53;101009.16;103721;280;39997;-70
2023/04/17 04:04:11;;;;;;;14.00;12.50;;;;;;;8.52;86.63;101009.47;103668;280;39557;-72
2023/04/17 04:06:46;;;;;;;14.60;12.80;;;;;;;8.56;86.64;101015.30;103671;280;38398;-68
2023/04/17 04:09:19;;;;;;;16.10;13.60;;;;;;;8.59;86.80;101018.90;103673;280;38565;-70
2023/04/17 04:11:53;;;;;;;16.60;12.80;;;;;;;8.61;86.74;101017.81;103676;280;39778;-68
2023/04/17 04:14:27;;;;;;;16.50;13.00;;;;;;;8.65;86.74;101019.14;103681;280;39186;-71
2023/04/17 04:17:01;;;;;;;14.70;12.10;;;;;;;8.64;86.63;101024.36;103694;280;38949;-70
2023/04/17 04:19:36;;;;;;;14.30;12.50;;;;;;;8.66;86.71;101030.93;103688;280;39773;-70
2023/04/17 04:22:12;;;;;;;14.80;12.90;;;;;;;8.69;86.67;101035.06;103707;280;38589;-72
2023/04/17 04:24:46;;;;;;;16.50;13.90;;;;;;;8.70;86.57;101035.36;103681;280;40272;-71
2023/04/17 04:27:21;;;;;;;17.60;13.60;;;;;;;8.69;86.56;101034.71;103700;280;38240;-71
2023/04/17 04:29:57;;;;;;;16.40;13.40;;;;;;;8.71;86.55;101036.77;103670;280;38512;-71
2023/04/17 04:32:32;;;;;;;14.90;12.80;;;;;;;8.72;86.54;101036.73;103752;280;38229;-70
2023/04/17 04:35:08;;;;;;;15.10;13.30;;;;;;;8.74;86.53;101036.85;103650;280;38259;-68
2023/04/17 04:37:45;;;;;;;16.80;13.70;;;;;;;8.76;86.49;101041.52;103719;280;38565;-67
2023/04/17 04:40:20;;;;;;;16.10;14.10;;;;;;;8.77;86.62;101048.11;103684;280;38256;-67
2023/04/17 04:42:54;;;;;;;16.30;13.30;;;;;;;8.79;86.64;101050.16;103689;280;39490;-71
2023/04/17 04:45:28;;;;;;;15.00;13.20;;;;;;;8.81;86.73;101050.46;103686;269;38960;-70
2023/04/17 04:48:04;;;;;;;14.10;12.50;;;;;;;8.85;86.74;101048.48;103672;280;38344;-69
2023/04/17 04:50:38;;;;;;;18.10;13.70;;;;;;;8.88;86.62;101046.00;103563;282;38585;-70
2023/04/17 04:53:11;;;;;;;16.20;14.10;;;;;;;8.89;86.61;101053.27;103695;280;38369;-70
2023/04/17 04:55:48;;;;;;;18.80;13.70;;;;;;;8.92;86.66;101054.09;103693;280;38258;-69
2023/04/17 04:58:25;;;;;;;18.90;14.00;;;;;;;8.95;86.68;101056.45;103659;280;38333;-68
2023/04/17 05:01:01;;;;;;;;;;;;;;;8.96;86.67;101058.70;103751;279;38233;-73
2023/04/17 05:03:36;;;;;;;16.80;13.60;;;;;;;8.93;86.64;101054.07;103561;280;38430;-71
2023/04/17 05:06:12;;;;;;;16.30;14.30;;;;;;;8.95;86.65;101053.14;103693;280;38234;-67
2023/04/17 05:08:46;;;;;;;15.50;13.60;;;;;;;8.94;86.58;101055.94;103687;280;38575;-69
2023/04/17 05:11:20;;;;;;;17.90;13.80;;;;;;;9.01;86.72;101059.82;103724;280;39456;-73
2023/04/17 05:13:54;;;;;;;16.30;13.20;;;;;;;9.07;86.71;101054.83;103675;280;40123;-70
2023/04/17 05:16:28;;;;;;;17.60;12.90;;;;;;;9.08;86.45;101055.67;103056;280;908389;-71
2023/04/17 05:19:02;;;;;;;18.70;14.20;;;;;;;9.12;86.36;101056.98;103678;280;39691;-70
2023/04/17 05:21:36;;;;;;;17.40;13.90;;;;;;;9.15;86.24;101054.30;103614;280;175185;-69
2023/04/17 05:24:10;;;;;;;16.00;13.40;;;;;;;9.19;86.30;101057.34;103684;280;38504;-69
2023/04/17 05:26:44;;;;;;;18.80;13.70;;;;;;;9.21;86.00;101056.59;103733;280;39651;-68
2023/04/17 05:29:25;;;;;;;17.40;13.70;;;;;;;9.21;85.82;101053.29;103687;280;39582;-68
2023/04/17 05:32:00;;;;;;;18.20;13.80;;;;;;;9.21;85.70;101060.61;103670;280;38357;-70
2023/04/17 05:34:34;;;;;;;18.10;14.00;;;;;;;9.24;85.82;101060.19;103677;280;38598;-70
2023/04/17 05:37:10;;;;;;;15.60;13.90;;;;;;;9.26;85.72;101062.95;103754;280;39077;-69
2023/04/17 05:39:45;;;;;;;19.90;14.70;;;;;;;9.28;85.55;101062.55;103710;280;38807;-68
2023/04/17 05:42:29;;;;;;;17.80;14.20;;;;;;;9.27;85.55;101065.19;103702;279;39386;-69
2023/04/17 05:45:03;;;;;;;17.70;14.20;;;;;;;9.29;85.55;101066.70;103670;280;39643;-69
2023/04/17 05:47:40;;;;;;;17.60;13.80;;;;;;;9.29;85.47;101068.80;103718;280;38405;-70
2023/04/17 05:50:14;;;;;;;17.20;13.90;;;;;;;9.30;85.38;101067.73;103679;280;40047;-68
2023/04/17 05:52:48;;;;;;;16.70;13.00;;;;;;;9.33;85.56;101068.89;103704;280;38537;-71
2023/04/17 05:55:24;;;;;;;17.20;13.80;;;;;;;9.39;85.47;101072.77;103712;280;39669;-71
2023/04/17 05:57:58;;;;;;;16.60;13.80;;;;;;;9.39;85.08;101072.23;103701;280;38840;-70
2023/04/17 06:00:32;;;;;;;18.40;14.70;;;;;;;9.40;85.22;101064.02;103703;280;38671;-69
2023/04/17 06:03:09;;;;;;;15.70;13.70;;;;;;;9.44;85.34;101061.32;103688;280;38628;-69
2023/04/17 06:05:45;;;;;;;17.60;13.90;;;;;;;9.48;85.05;101065.77;103711;280;38415;-70
2023/04/17 06:08:26;;;;;;;18.00;13.50;;;;;;;9.53;85.16;101060.95;103711;280;38464;-70
2023/04/17 06:11:02;;;;;;;17.90;13.40;;;;;;;9.68;85.54;101057.30;103658;280;38325;-68
2023/04/17 06:13:42;;;;;;;18.50;13.80;;;;;;;9.81;85.34;101055.93;103680;280;39407;-68
2023/04/17 06:16:21;;;;;;;19.40;14.70;;;;;;;9.92;85.17;101050.27;103733;280;39098;-72
2023/04/17 06:18:56;;;;;;;17.20;14.70;;;;;;;9.98;85.01;101061.29;103717;280;38355;-71
2023/04/17 06:21:31;;;;;;;19.30;14.00;;;;;;;10.04;84.96;101074.55;103758;280;38490;-74
2023/04/17 06:24:06;;;;;;;14.30;12.80;;;;;;;10.09;84.31;101078.09;103688;280;39425;-73
2023/04/17 06:26:40;;;;;;;17.50;14.10;;;;;;;10.11;83.83;101079.81;103725;280;38271;-72
2023/04/17 06:29:16;;;;;;;16.80;13.80;;;;;;;10.18;84.13;101081.02;103662;280;175348;-72
2023/04/17 06:31:50;;;;;;;17.20;14.10;;;;;;;10.27;83.92;101078.89;103704;280;38512;-73
2023/04/17 06:34:23;;;;;;;17.40;14.30;;;;;;;10.36;83.36;101080.61;103662;280;38341;-73
2023/04/17 06:36:57;;;;;;;16.20;13.80;;;;;;;10.39;82.96;101077.38;103717;280;40163;-70
2023/04/17 06:39:32;;;;;;;16.90;14.50;;;;;;;10.43;82.77;101078.65;103734;280;40080;-70
2023/04/17 06:42:07;;;;;;;15.70;13.20;;;;;;;10.48;82.36;101080.63;103711;280;38707;-74
2023/04/17 06:44:42;;;;;;;15.10;12.70;;;;;;;10.50;82.12;101077.96;103711;280;39927;-73
2023/04/17 06:47:16;;;;;;;16.50;14.20;;;;;;;10.64;82.73;101081.77;103718;280;38499;-71
2023/04/17 06:49:52;;;;;;;14.90;13.30;;;;;;;10.80;82.29;101086.23;103676;280;39690;-71
2023/04/17 06:52:27;;;;;;;16.30;14.60;;;;;;;10.89;81.99;101085.97;103689;280;38781;-72
2023/04/17 06:55:03;;;;;;;17.10;14.70;;;;;;;10.92;81.18;101089.38;103715;280;39653;-74
2023/04/17 06:57:39;;;;;;;15.40;13.40;;;;;;;10.95;80.83;101095.40;103828;280;39234;-72
2023/04/17 07:00:25;;;;;;;15.50;13.40;;;;;;;11.00;80.42;101097.37;103743;280;38394;-73
2023/04/17 07:02:59;;;;;;;16.00;13.60;;;;;;;11.08;80.42;101096.09;103726;279;38241;-71
2023/04/17 07:05:40;;;;;;;15.80;13.20;;;;;;;11.14;80.13;101101.35;103527;280;38269;-73
2023/04/17 07:08:17;;;;;;;15.40;13.00;;;;;;;11.16;79.69;101105.29;103723;280;38265;-72
2023/04/17 07:10:52;;;;;;;15.60;13.90;;;;;;;11.16;79.71;101103.00;103719;280;39386;-72
2023/04/17 07:13:30;;;;;;;23.10;16.10;;;;;;;11.16;78.87;101101.95;103586;280;38739;-73
2023/04/17 07:16:07;;;;;;;19.10;13.90;;;;;;;11.21;79.55;101103.75;103677;280;38542;-72
2023/04/17 07:18:41;;;;;;;15.30;13.60;;;;;;;11.40;80.14;101102.49;103656;280;39689;-73
2023/04/17 07:21:15;;;;;;;15.20;13.70;;;;;;;11.57;79.48;101109.82;103724;280;38465;-72
2023/04/17 07:23:49;;;;;;;18.20;14.10;;;;;;;11.69;79.08;101110.71;103665;280;38541;-72
2023/04/17 07:26:23;;;;;;;15.90;14.10;;;;;;;11.82;78.80;101107.34;103704;280;38262;-70
2023/04/17 07:28:57;;;;;;;17.40;14.80;;;;;;;11.97;78.55;101109.15;103725;280;38650;-71
2023/04/17 07:31:31;;;;;;;15.00;13.40;;;;;;;12.06;77.76;101109.89;103735;280;38437;-73
2023/04/17 07:34:12;;;;;;;15.60;14.10;;;;;;;12.12;77.42;101113.73;103706;280;38429;-72
2023/04/17 07:36:50;;;;;;;14.40;12.80;;;;;;;12.21;77.38;101115.18;103543;280;38897;-71
2023/04/17 07:39:29;;;;;;;14.90;13.30;;;;;;;12.25;76.49;101119.42;103695;280;38240;-70
2023/04/17 07:42:06;;;;;;;16.60;14.40;;;;;;;12.27;76.38;101120.60;103721;269;39399;-72
2023/04/17 07:44:43;;;;;;;15.10;13.50;;;;;;;12.31;76.80;101121.52;102968;279;902416;-70
2023/04/17 07:47:17;;;;;;;17.00;14.80;;;;;;;12.45;76.89;101115.96;103715;280;39620;-73
2023/04/17 07:49:52;;;;;;;17.20;14.90;;;;;;;12.70;76.53;101118.96;103689;280;39648;-75
2023/04/17 07:52:26;;;;;;;17.80;14.30;;;;;;;12.93;76.28;101119.55;103688;280;39648;-71
2023/04/17 07:55:00;;;;;;;15.90;14.30;;;;;;;13.07;75.34;101125.17;103676;280;39349;-69
2023/04/17 07:57:34;;;;;;;16.80;14.80;;;;;;;13.11;74.02;101125.55;103547;280;38253;-71
2023/04/17 08:00:12;;;;;;;16.40;14.30;;;;;;;13.07;73.41;101127.62;103690;280;38362;-70
2023/04/17 08:02:46;;;;;;;17.30;13.70;;;;;;;13.12;73.95;101126.39;103729;280;39462;-73
2023/04/17 08:05:22;;;;;;;17.70;15.00;;;;;;;13.23;74.06;101128.64;103641;280;39648;-75
2023/04/17 08:07:56;;;;;;;17.00;14.20;;;;;;;13.43;74.62;101127.02;103683;280;39429;-71
2023/04/17 08:10:32;;;;;;;15.00;13.50;;;;;;;13.70;74.19;101125.47;103696;280;38469;-71
2023/04/17 08:13:06;;;;;;;15.00;13.50;;;;;;;13.83;72.71;101130.39;103727;280;38428;-69
2023/04/17 08:15:40;;;;;;;15.40;13.80;;;;;;;13.83;71.64;101130.06;103701;280;38252;-71
2023/04/17 08:18:14;;;;;;;15.10;13.00;;;;;;;13.79;71.60;101130.54;103678;280;39818;-71
2023/04/17 08:20:48;;;;;;;15.00;13.50;;;;;;;13.80;71.51;101131.22;103712;280;38522;-75
2023/04/17 08:23:21;;;;;;;15.00;12.80;;;;;;;13.76;70.87;101134.34;103671;280;38228;-74
2023/04/17 08:25:55;;;;;;;14.00;12.60;;;;;;;13.75;71.58;101136.67;103522;280;39529;-72
2023/04/17 08:28:29;;;;;;;15.30;12.90;;;;;;;13.80;71.03;101140.68;103705;280;39219;-72
2023/04/17 08:31:04;;;;;;;14.10;11.90;;;;;;;13.82;70.75;101144.77;103445;282;175147;-72
2023/04/17 08:33:38;;;;;;;14.30;12.70;;;;;;;13.81;70.57;101140.63;103707;280;39516;-74
2023/04/17 08:36:12;;;;;;;14.70;12.80;;;;;;;13.82;70.39;101147.10;103733;280;38868;-71
2023/04/17 08:38:47;;;;;;;17.20;13.00;;;;;;;13.78;70.05;101144.45;103720;280;39383;-71
2023/04/17 08:41:26;;;;;;;13.70;12.10;;;;;;;13.71;70.20;101146.11;103779;279;38813;-71
2023/04/17 08:44:01;;;;;;;14.70;12.70;;;;;;;13.67;70.47;101146.98;103694;280;39318;-71
2023/04/17 08:46:36;;;;;;;14.30;12.90;;;;;;;13.66;70.34;101147.89;103521;282;39879;-69
2023/04/17 08:49:10;;;;;;;15.00;13.10;;;;;;;13.63;70.45;101151.66;103690;280;39682;-71
2023/04/17 08:51:43;;;;;;;14.40;12.90;;;;;;;13.63;70.67;101149.58;103678;280;38764;-71
2023/04/17 08:54:18;;;;;;;16.60;11.90;;;;;;;13.66;71.02;101144.20;103707;280;38262;-72
2023/04/17 08:56:52;;;;;;;15.90;12.90;;;;;;;13.79;71.00;101147.73;103727;280;38759;-75
2023/04/17 08:59:26;;;;;;;16.10;12.80;;;;;;;13.88;70.55;101149.66;103541;282;38676;-74
2023/04/17 09:02:07;;;;;;;15.30;11.90;;;;;;;13.90;69.83;101155.00;103711;280;39278;-74
2023/04/17 09:04:42;;;;;;;15.30;12.70;;;;;;;13.86;70.03;101152.20;103689;280;38283;-74
2023/04/17 09:07:16;;;;;;;14.70;13.00;;;;;;;13.90;70.33;101150.45;103700;279;39921;-75
2023/04/17 09:09:54;;;;;;;15.40;13.40;;;;;;;14.12;70.87;101150.64;103551;280;37907;-75
2023/04/17 09:12:29;;;;;;;14.50;12.40;;;;;;;14.38;70.11;101155.02;103681;280;38480;-73
2023/04/17 09:15:03;;;;;;;14.70;13.10;;;;;;;14.50;68.82;101156.50;103694;280;39997;-75
2023/04/17 09:17:38;;;;;;;14.80;11.40;;;;;;;14.63;69.44;101158.76;103692;280;39951;-73
2023/04/17 09:20:16;;;;;;;13.50;11.60;;;;;;;14.79;68.40;101159.29;103691;280;38506;-73
2023/04/17 09:22:50;;;;;;;13.70;12.20;;;;;;;15.01;68.60;101153.08;103693;280;38224;-73
2023/04/17 09:25:27;;;;;;;15.20;12.00;;;;;;;15.36;68.87;101156.41;103693;280;38597;-72
2023/04/17 09:28:13;;;;;;;13.00;11.20;;;;;;;15.68;66.82;101159.53;103656;280;39019;-74
2023/04/17 09:30:47;;;;;;;12.80;11.20;;;;;;;15.60;64.72;101162.04;103684;280;39498;-74
2023/04/17 09:33:21;;;;;;;15.60;11.30;;;;;;;15.34;64.75;101163.56;103672;280;39405;-74
2023/04/17 09:35:55;;;;;;;12.40;11.20;;;;;;;15.22;65.48;101161.11;103131;280;668794;-71
2023/04/17 09:38:41;;;;;;;12.90;11.20;;;;;;;15.07;65.11;101167.02;103625;280;39762;-71
2023/04/17 09:41:26;;;;;;;15.50;11.90;;;;;;;14.94;65.87;101161.24;103703;280;38385;-73
2023/04/17 09:44:04;;;;;;;16.10;12.00;;;;;;;14.86;66.05;101163.92;103675;280;38410;-72
2023/04/17 09:46:44;;;;;;;14.90;12.00;;;;;;;14.82;66.54;101166.02;103688;280;39054;-71
2023/04/17 09:49:23;;;;;;;15.10;11.60;;;;;;;14.80;66.21;101168.90;103667;280;38610;-71
2023/04/17 09:51:57;;;;;;;12.70;10.80;;;;;;;14.74;65.75;101168.80;103691;280;39689;-71
2023/04/17 09:54:31;;;;;;;12.90;11.60;;;;;;;14.67;66.77;101169.09;103670;280;38234;-69
2023/04/17 09:57:07;;;;;;;13.80;11.80;;;;;;;14.80;67.04;101167.17;103739;280;38227;-75
2023/04/17 09:59:44;;;;;;;13.00;11.60;;;;;;;14.89;66.96;101168.02;103689;280;38232;-74
2023/04/17 10:02:19;;;;;;;16.40;11.70;;;;;;;14.95;66.56;101165.08;103691;280;38375;-75
2023/04/17 10:04:54;;;;;;;15.00;11.30;;;;;;;15.09;66.75;101163.96;103533;280;174766;-74
2023/04/17 10:07:28;;;;;;;14.90;11.90;;;;;;;15.23;66.57;101160.88;103671;280;38381;-73
2023/04/17 10:10:07;;;;;;;14.40;12.40;;;;;;;15.43;66.43;101167.16;103701;280;38684;-73
2023/04/17 10:12:42;;;;;;;15.10;12.60;;;;;;;15.62;65.43;101165.10;103615;280;175036;-73
2023/04/17 10:15:16;;;;;;;14.70;12.10;;;;;;;15.75;65.70;101166.42;103659;280;39695;-72
2023/04/17 10:17:50;;;;;;;13.00;11.60;;;;;;;15.95;65.46;101169.89;103722;280;39496;-75
2023/04/17 10:20:43;;;;;;;14.70;11.50;;;;;;;16.03;64.33;101168.81;103686;280;38505;-74
2023/04/17 10:23:35;;;;;;;14.40;11.70;;;;;;;15.92;62.87;101173.74;103676;280;38457;-72
2023/04/17 10:26:41;;;;;;;12.30;10.50;;;;;;;15.66;63.34;101176.87;103665;280;38270;-74
2023/04/17 10:29:15;;;;;;;12.10;10.80;;;;;;;15.46;62.98;101179.00;103665;299;39646;-74
2023/04/17 10:32:27;;;;;;;12.90;10.80;;;;;;;15.28;63.58;101176.69;103729;280;38474;-73
2023/04/17 10:35:02;;;;;;;12.00;10.70;;;;;;;15.17;63.66;101171.84;103543;280;39416;-72
2023/04/17 10:38:06;;;;;;;12.40;10.60;;;;;;;15.14;64.12;101169.00;103697;280;38870;-70
2023/04/17 10:40:40;;;;;;;12.10;10.60;;;;;;;15.16;64.23;101166.09;103674;280;38345;-72
2023/04/17 10:43:18;;;;;;;14.90;11.50;;;;;;;15.21;64.00;101165.69;103686;280;38533;-74
2023/04/17 10:46:05;;;;;;;12.50;10.90;;;;;;;15.34;64.33;101163.19;103687;280;38262;-73
2023/04/17 10:48:41;;;;;;;15.60;11.40;;;;;;;15.61;64.59;101158.32;103693;280;39800;-74
2023/04/17 10:51:42;;;;;;;13.20;10.70;;;;;;;15.74;63.02;101160.85;103736;280;38256;-74
2023/04/17 10:54:17;;;;;;;13.10;10.60;;;;;;;15.71;62.48;101159.94;103675;280;38665;-74
2023/04/17 10:56:56;;;;;;;12.70;10.40;;;;;;;15.77;62.72;101156.69;103719;280;38641;-70
2023/04/17 10:59:31;;;;;;;12.70;9.90;;;;;;;15.83;62.44;101156.39;103691;280;39468;-70
2023/04/17 11:02:06;;;;;;;14.20;10.40;;;;;;;15.88;61.78;101159.31;103522;280;38435;-74
2023/04/17 11:04:41;;;;;;;12.00;10.20;;;;;;;15.92;61.84;101159.48;103514;279;188231;-75
2023/04/17 11:07:17;;;;;;;13.20;10.40;;;;;;;15.95;61.43;101158.27;103728;280;38402;-74
2023/04/17 11:09:56;;;;;;;11.60;10.30;;;;;;;15.84;60.04;101154.04;103654;280;38789;-73
2023/04/17 11:12:34;;;;;;;11.70;10.10;;;;;;;15.80;61.38;101154.58;103723;280;38519;-74
2023/04/17 11:15:10;;;;;;;13.60;10.50;;;;;;;15.90;61.55;101152.71;103574;280;175054;-74
2023/04/17 11:17:49;;;;;;;11.20;9.50;;;;;;;15.97;60.89;101151.99;103593;280;38247;-74
2023/04/17 11:20:26;;;;;;;11.20;9.60;;;;;;;15.99;60.66;101152.61;103677;279;40079;-74
2023/04/17 11:23:02;;;;;;;13.40;10.00;;;;;;;15.97;60.44;101157.09;103714;280;38596;-74
2023/04/17 11:25:37;;;;;;;13.40;9.70;;;;;;;15.96;60.67;101152.23;103709;280;39583;-72
2023/04/17 11:28:11;;;;;;;13.00;9.80;;;;;;;15.94;60.95;101151.61;103693;280;39468;-72
2023/04/17 11:30:45;;;;;;;11.30;9.80;;;;;;;15.97;60.44;101149.03;103597;280;174650;-73
2023/04/17 11:33:19;;;;;;;11.10;9.70;;;;;;;15.97;60.16;101154.45;103711;280;38529;-73
2023/04/17 11:35:54;;;;;;;12.60;9.50;;;;;;;15.93;59.73;101153.63;103714;280;38575;-72
2023/04/17 11:38:28;;;;;;;12.50;9.10;;;;;;;15.87;60.09;101152.33;103693;280;38619;-74
2023/04/17 11:41:03;;;;;;;10.80;9.40;;;;;;;15.90;60.62;101153.40;103671;280;39585;-70
2023/04/17 11:43:38;;;;;;;11.10;9.30;;;;;;;15.98;60.59;101152.82;103709;280;38237;-72
2023/04/17 11:46:12;;;;;;;11.40;8.90;;;;;;;16.05;59.75;101151.31;103702;280;38328;-75
2023/04/17 11:48:49;;;;;;;9.80;8.70;;;;;;;16.13;59.79;101146.52;103672;280;38261;-74
2023/04/17 11:51:23;;;;;;;10.10;8.10;;;;;;;16.26;60.03;101140.58;103699;280;38632;-73
2023/04/17 11:53:58;;;;;;;10.20;8.70;;;;;;;16.36;59.18;101140.09;103509;280;38748;-73